Time;durP1;ratioP1;P1;durP2;ratioP2;P2;SDS_P1;SDS_P2;PMS_P1;PMS_P2;Temp;Humidity;BMP_temperature;BMP_pressure;BME280_temperature;BME280_humidity;BME280_pressure;Samples;Min_cycle;Max_cycle;Signal;HPM_P1;HPM_P2
2024/01/25 00:04:44;;;;;;;7.00;2.30;;;;;;;5.50;85.73;99065.27;216858;1262;140306;-71
2024/01/25 00:09:48;;;;;;;10.30;1.80;;;;;;;5.52;85.82;99072.41;216974;1260;139605;-70
2024/01/25 00:14:54;;;;;;;13.20;2.20;;;;;;;5.55;85.62;99071.08;216953;1262;140898;-69
2024/01/25 00:19:58;;;;;;;12.40;2.00;;;;;;;5.57;85.19;99075.95;216971;1261;139632;-68
2024/01/25 00:25:03;;;;;;;5.60;1.40;;;;;;;5.59;85.41;99079.06;217222;1259;139670;-68
2024/01/25 00:30:08;;;;;;;3.40;1.90;;;;;;;5.59;84.96;99086.21;216752;1257;139981;-71
2024/01/25 00:35:13;;;;;;;6.50;1.50;;;;;;;5.58;85.03;99093.05;219636;1259;139950;-69
2024/01/25 00:40:18;;;;;;;8.40;1.40;;;;;;;5.57;84.64;99112.34;219755;1260;139825;-71
2024/01/25 00:45:23;;;;;;;10.50;3.20;;;;;;;5.58;84.69;99118.23;219839;1262;140629;-70
2024/01/25 00:50:28;;;;;;;4.00;1.40;;;;;;;5.56;84.65;99121.02;217293;1261;139808;-69
2024/01/25 00:55:33;;;;;;;12.20;2.00;;;;;;;5.51;84.38;99131.60;216590;1259;140640;-69
2024/01/25 01:00:38;;;;;;;9.70;2.40;;;;;;;5.47;84.39;99128.68;216582;1258;139995;-69
2024/01/25 01:05:43;;;;;;;5.20;1.30;;;;;;;5.44;84.33;99133.98;217776;1260;140948;-71
2024/01/25 01:10:47;;;;;;;5.50;1.70;;;;;;;5.42;84.68;99149.34;216950;1261;139803;-70
2024/01/25 01:15:52;;;;;;;7.60;2.20;;;;;;;5.41;84.86;99148.78;216754;1260;139850;-68
2024/01/25 01:20:56;;;;;;;8.40;2.10;;;;;;;5.37;84.75;99149.81;216600;1262;140069;-70
2024/01/25 01:26:01;;;;;;;7.20;2.60;;;;;;;5.35;84.66;99144.09;216506;1259;141106;-70
2024/01/25 01:31:06;;;;;;;3.20;1.30;;;;;;;5.32;84.80;99146.20;216507;1262;139150;-70
2024/01/25 01:36:10;;;;;;;3.80;1.40;;;;;;;5.29;84.88;99139.46;216715;1262;140759;-69
2024/01/25 01:41:15;;;;;;;6.90;3.40;;;;;;;5.27;84.77;99143.78;216594;1263;139459;-70
2024/01/25 01:46:37;;;;;;;7.40;1.60;;;;;;;5.26;85.00;99140.66;216589;1262;140313;-71
2024/01/25 01:51:43;;;;;;;8.00;1.40;;;;;;;5.23;84.96;99134.66;216505;1263;140273;-70
2024/01/25 01:56:48;;;;;;;4.00;1.40;;;;;;;5.23;84.62;99130.11;217078;1263;140051;-69
2024/01/25 02:01:52;;;;;;;16.10;4.10;;;;;;;5.26;84.91;99135.22;216816;1261;140272;-68
2024/01/25 02:06:58;;;;;;;5.80;1.60;;;;;;;5.28;84.76;99143.58;216616;1263;140622;-69
2024/01/25 02:12:03;;;;;;;3.30;1.30;;;;;;;5.27;84.74;99140.90;216601;1262;141229;-68
2024/01/25 02:17:07;;;;;;;7.30;2.00;;;;;;;5.23;84.84;99137.30;216864;1257;140148;-71
2024/01/25 02:22:16;;;;;;;9.30;3.10;;;;;;;5.21;84.85;99135.49;216842;1257;141007;-70
2024/01/25 02:27:22;;;;;;;5.80;1.50;;;;;;;5.20;84.83;99131.45;217495;1257;139342;-70
2024/01/25 02:32:26;;;;;;;4.10;1.50;;;;;;;5.19;84.71;99147.28;216783;1257;139581;-72
2024/01/25 02:37:31;;;;;;;3.10;1.10;;;;;;;5.17;84.42;99145.59;216860;1262;140522;-72
2024/01/25 02:42:36;;;;;;;7.50;1.50;;;;;;;5.17;84.82;99150.02;216839;1263;139874;-70
2024/01/25 02:47:41;;;;;;;7.30;2.40;;;;;;;5.15;84.45;99148.52;216862;1262;139977;-70
2024/01/25 02:52:45;;;;;;;3.80;1.10;;;;;;;5.12;84.61;99147.88;216782;1257;139185;-69
2024/01/25 02:57:51;;;;;;;7.70;3.10;;;;;;;5.10;84.45;99149.98;216722;1258;139451;-70
2024/01/25 03:02:57;;;;;;;3.60;1.50;;;;;;;5.05;84.86;99140.01;216805;1257;139382;-71
2024/01/25 03:08:03;;;;;;;4.30;2.00;;;;;;;5.01;84.53;99136.54;218060;1261;139501;-71
2024/01/25 03:13:08;;;;;;;4.50;1.40;;;;;;;4.99;84.51;99133.45;216691;1262;140148;-70
2024/01/25 03:18:15;;;;;;;;;;;;;;;5.00;84.42;99150.48;216547;1263;139582;-69
2024/01/25 03:23:20;;;;;;;6.60;1.80;;;;;;;4.98;84.62;99155.61;217097;1263;126305;-71
2024/01/25 03:28:25;;;;;;;10.40;2.30;;;;;;;4.98;84.61;99158.05;216426;1262;140025;-71
2024/01/25 03:33:32;;;;;;;3.60;1.40;;;;;;;4.99;84.81;99160.02;216698;1257;140453;-71
2024/01/25 03:38:37;;;;;;;11.20;3.90;;;;;;;5.00;84.93;99157.95;216605;1262;140436;-71
2024/01/25 03:43:44;;;;;;;15.30;3.20;;;;;;;4.99;84.86;99157.55;216894;1261;140260;-71
2024/01/25 03:48:54;;;;;;;14.20;2.80;;;;;;;4.99;84.66;99153.77;216712;1257;139992;-70
2024/01/25 03:53:59;;;;;;;10.50;2.50;;;;;;;4.96;84.69;99138.91;217682;1257;140338;-69
2024/01/25 03:59:04;;;;;;;5.90;1.80;;;;;;;4.96;84.56;99141.89;216782;1257;139603;-69
2024/01/25 04:04:10;;;;;;;15.10;5.70;;;;;;;4.91;84.75;99137.36;216654;1262;138988;-68
2024/01/25 04:09:16;;;;;;;8.00;2.60;;;;;;;4.92;84.68;99133.20;216734;1263;221621;-69
2024/01/25 04:14:21;;;;;;;15.50;3.70;;;;;;;4.92;84.23;99140.11;218844;1257;139810;-69
2024/01/25 04:19:26;;;;;;;9.40;1.70;;;;;;;4.93;84.28;99139.30;218368;1261;141499;-68
2024/01/25 04:24:31;;;;;;;14.70;2.20;;;;;;;4.94;84.19;99140.71;217057;1257;139439;-67
2024/01/25 04:29:39;;;;;;;7.20;1.90;;;;;;;4.93;83.88;99136.41;219915;1257;139883;-68
2024/01/25 04:34:44;;;;;;;9.30;1.70;;;;;;;4.93;83.93;99134.91;219750;1257;139830;-70
2024/01/25 04:39:53;;;;;;;7.20;2.10;;;;;;;4.93;83.61;99131.86;219738;1257;140364;-71
2024/01/25 04:44:59;;;;;;;13.10;2.60;;;;;;;4.92;83.46;99136.70;218072;1257;139406;-70
2024/01/25 04:50:06;;;;;;;6.10;1.80;;;;;;;4.94;83.62;99133.68;216786;1262;140084;-70
2024/01/25 04:55:13;;;;;;;11.30;3.20;;;;;;;4.94;83.34;99135.48;216581;1257;412643;-68
2024/01/25 05:00:23;;;;;;;8.70;1.90;;;;;;;4.92;83.05;99143.89;216639;1257;140355;-69
2024/01/25 05:05:28;;;;;;;14.30;3.10;;;;;;;4.92;83.53;99146.20;217122;1257;140694;-69
2024/01/25 05:10:32;;;;;;;17.20;2.90;;;;;;;4.93;83.23;99148.60;216667;1261;139726;-68
2024/01/25 05:15:36;;;;;;;7.80;2.70;;;;;;;4.93;83.34;99153.89;216985;1257;139432;-70
2024/01/25 05:20:41;;;;;;;9.50;2.30;;;;;;;4.92;83.26;99161.69;216847;1262;139327;-70
2024/01/25 05:25:51;;;;;;;14.30;3.50;;;;;;;4.91;83.35;99174.16;216911;1257;139275;-70
2024/01/25 05:30:55;;;;;;;10.50;2.80;;;;;;;4.88;83.47;99184.04;217335;1262;140773;-70
2024/01/25 05:35:59;;;;;;;10.70;3.00;;;;;;;4.79;83.98;99189.97;216781;1258;142011;-73
2024/01/25 05:41:05;;;;;;;16.00;3.00;;;;;;;4.70;84.53;99180.66;216577;1257;140453;-70
2024/01/25 05:46:10;;;;;;;4.80;2.30;;;;;;;4.60;84.79;99193.39;216680;1262;139699;-68
2024/01/25 05:51:15;;;;;;;11.80;2.80;;;;;;;4.53;85.15;99198.61;216752;1260;140572;-69
2024/01/25 05:56:20;;;;;;;9.00;2.70;;;;;;;4.48;85.45;99200.78;216713;1258;141307;-68
2024/01/25 06:01:25;;;;;;;8.30;2.20;;;;;;;4.46;85.60;99208.66;216743;1258;140583;-69
2024/01/25 06:06:30;;;;;;;8.40;2.00;;;;;;;4.40;85.83;99208.99;217067;1257;139649;-68
2024/01/25 06:11:35;;;;;;;12.70;2.70;;;;;;;4.36;86.31;99208.20;217083;1257;140965;-67
2024/01/25 06:16:40;;;;;;;13.00;3.70;;;;;;;4.32;86.55;99215.27;216950;1258;139542;-68
2024/01/25 06:21:45;;;;;;;6.70;2.30;;;;;;;4.29;86.90;99212.11;219786;1257;139795;-70
2024/01/25 06:26:49;;;;;;;14.30;1.80;;;;;;;4.30;87.00;99213.48;219597;1257;140594;-70
2024/01/25 06:31:54;;;;;;;5.00;1.90;;;;;;;4.32;87.26;99218.95;218448;1257;139796;-73
2024/01/25 06:36:59;;;;;;;8.40;2.40;;;;;;;4.34;87.42;99228.73;217248;1258;139581;-75
2024/01/25 06:42:04;;;;;;;9.80;3.10;;;;;;;4.34;87.46;99227.64;217810;1257;140140;-74
2024/01/25 06:47:10;;;;;;;7.50;1.20;;;;;;;4.32;87.68;99233.98;218188;1257;140036;-72
2024/01/25 06:52:13;;;;;;;11.30;2.40;;;;;;;4.31;87.89;99230.45;216653;1261;139940;-73
2024/01/25 06:57:17;;;;;;;8.40;1.80;;;;;;;4.32;88.17;99240.59;216744;1261;141980;-73
2024/01/25 07:02:21;;;;;;;11.60;2.90;;;;;;;4.33;88.56;99244.33;218223;1257;139915;-73
2024/01/25 07:07:25;;;;;;;6.80;2.30;;;;;;;4.34;88.37;99248.02;217140;1257;140961;-72
2024/01/25 07:12:29;;;;;;;15.00;3.10;;;;;;;4.34;88.32;99245.42;216512;1262;151604;-71
2024/01/25 07:17:34;;;;;;;6.00;2.10;;;;;;;4.34;88.73;99244.65;216618;1262;139817;-71
2024/01/25 07:22:39;;;;;;;8.20;1.40;;;;;;;4.36;88.68;99253.25;216733;1257;140427;-74
2024/01/25 07:27:45;;;;;;;6.90;1.80;;;;;;;4.36;88.86;99253.26;216897;1257;140479;-73
2024/01/25 07:32:50;;;;;;;8.60;2.90;;;;;;;4.37;88.93;99253.58;216704;1261;139967;-71
2024/01/25 07:37:55;;;;;;;6.80;1.30;;;;;;;4.37;88.93;99255.45;216794;1258;141639;-71
2024/01/25 07:42:59;;;;;;;9.00;2.10;;;;;;;4.37;89.02;99260.92;216625;1257;139310;-70
2024/01/25 07:48:05;;;;;;;8.30;1.90;;;;;;;4.37;89.06;99264.50;216675;1257;140211;-70
2024/01/25 07:53:18;;;;;;;6.90;1.80;;;;;;;4.38;88.98;99273.30;217668;1257;140894;-72
2024/01/25 07:58:23;;;;;;;14.80;4.10;;;;;;;4.35;89.09;99276.31;217647;1257;139771;-70
2024/01/25 08:03:28;;;;;;;2.40;1.40;;;;;;;4.36;89.02;99266.57;217787;1258;139431;-70
2024/01/25 08:08:32;;;;;;;7.00;1.60;;;;;;;4.39;89.09;99281.46;217190;1257;139778;-68
2024/01/25 08:13:38;;;;;;;6.70;2.40;;;;;;;4.41;89.08;99290.67;216803;1258;140304;-69
2024/01/25 08:18:44;;;;;;;3.50;1.60;;;;;;;4.41;89.00;99291.73;216504;1258;139397;-70
2024/01/25 08:23:49;;;;;;;13.90;2.80;;;;;;;4.43;88.95;99299.98;217570;1257;139203;-68
2024/01/25 08:28:54;;;;;;;6.20;3.60;;;;;;;4.41;89.19;99309.36;218068;1257;139614;-70
2024/01/25 08:33:58;;;;;;;6.00;3.10;;;;;;;4.40;89.27;99311.31;216883;1257;140224;-69
2024/01/25 08:39:04;;;;;;;5.90;1.90;;;;;;;4.40;89.38;99322.80;216970;1261;139529;-69
2024/01/25 08:44:09;;;;;;;5.90;2.40;;;;;;;4.43;89.61;99327.83;216920;1260;139319;-67
2024/01/25 08:49:14;;;;;;;9.90;2.20;;;;;;;4.45;89.60;99329.17;216801;1258;139807;-69
2024/01/25 08:54:19;;;;;;;7.30;1.80;;;;;;;4.44;89.66;99341.55;217682;1257;140105;-68
2024/01/25 08:59:23;;;;;;;6.40;2.30;;;;;;;4.41;89.44;99354.79;216999;1258;140359;-67
2024/01/25 09:04:27;;;;;;;9.80;2.50;;;;;;;4.40;89.80;99367.21;218042;1257;140581;-67
2024/01/25 09:09:31;;;;;;;15.70;4.00;;;;;;;4.39;89.89;99376.63;217589;1257;140032;-69
2024/01/25 09:14:36;;;;;;;7.00;2.10;;;;;;;4.40;89.93;99392.46;216783;1257;139872;-69
2024/01/25 09:19:41;;;;;;;3.90;1.80;;;;;;;4.43;90.29;99394.79;216888;1257;139936;-69
2024/01/25 09:24:48;;;;;;;6.00;2.30;;;;;;;4.43;90.45;99393.73;216762;1257;139998;-69
2024/01/25 09:29:52;;;;;;;10.00;3.20;;;;;;;4.47;90.59;99401.73;217326;1257;139404;-67
2024/01/25 09:34:56;;;;;;;8.00;3.70;;;;;;;4.50;90.71;99409.52;216944;1259;139957;-68
2024/01/25 09:40:03;;;;;;;6.20;2.10;;;;;;;4.54;90.83;99420.83;217685;1259;141043;-70
2024/01/25 09:45:11;;;;;;;8.60;1.90;;;;;;;4.54;90.99;99432.07;216852;1260;139963;-72
2024/01/25 09:50:19;;;;;;;7.20;2.60;;;;;;;4.54;90.93;99435.52;216855;1257;139472;-72
2024/01/25 09:55:26;;;;;;;3.80;1.90;;;;;;;4.54;91.03;99438.20;216512;1257;140238;-73
2024/01/25 10:00:31;;;;;;;5.40;3.20;;;;;;;4.54;91.42;99445.31;219389;1257;141588;-71
2024/01/25 10:05:37;;;;;;;9.90;2.60;;;;;;;4.57;91.45;99445.10;217468;1261;140020;-72
2024/01/25 10:10:44;;;;;;;3.30;2.50;;;;;;;4.59;91.48;99441.64;219684;1257;141516;-70
2024/01/25 10:15:48;;;;;;;12.00;3.30;;;;;;;4.61;91.58;99446.95;217754;1256;139470;-69
2024/01/25 10:20:55;;;;;;;2.70;2.00;;;;;;;4.60;91.46;99443.91;216934;1257;140470;-67
2024/01/25 10:26:02;;;;;;;8.30;2.20;;;;;;;4.58;91.65;99450.10;219737;1257;139802;-68
2024/01/25 10:31:07;;;;;;;5.60;3.10;;;;;;;4.57;91.94;99461.23;219537;1258;140242;-67
2024/01/25 10:36:11;;;;;;;9.20;2.10;;;;;;;4.59;91.62;99467.30;217223;1261;139599;-68
2024/01/25 10:41:17;;;;;;;2.50;1.70;;;;;;;4.57;91.81;99465.98;217725;1257;140033;-71
2024/01/25 10:46:21;;;;;;;5.50;2.40;;;;;;;4.58;92.02;99477.48;216639;1258;139453;-75
2024/01/25 10:51:27;;;;;;;9.30;2.80;;;;;;;4.58;91.94;99489.41;217411;1257;140012;-72
2024/01/25 10:56:31;;;;;;;8.20;2.30;;;;;;;4.56;92.02;99490.95;217961;1257;141414;-71
2024/01/25 11:01:36;;;;;;;10.80;2.30;;;;;;;4.56;92.03;99491.65;216617;1257;140430;-71
2024/01/25 11:06:41;;;;;;;5.60;2.40;;;;;;;4.59;92.21;99499.96;216752;1257;139842;-71
2024/01/25 11:11:50;;;;;;;6.10;2.40;;;;;;;4.57;92.23;99495.05;216442;1258;139568;-71
2024/01/25 11:16:56;;;;;;;7.70;2.90;;;;;;;4.54;92.47;99497.82;216645;1260;140130;-71
2024/01/25 11:22:05;;;;;;;7.10;2.50;;;;;;;4.51;92.32;99506.14;216843;1257;139875;-68
2024/01/25 11:27:13;;;;;;;8.40;3.20;;;;;;;4.49;92.56;99507.88;216412;1260;139634;-68
2024/01/25 11:32:18;;;;;;;7.60;2.60;;;;;;;4.50;92.64;99512.67;217529;1259;141469;-68
2024/01/25 11:37:23;;;;;;;3.90;2.30;;;;;;;4.50;92.59;99513.36;216959;1260;139796;-69
2024/01/25 11:42:30;;;;;;;5.20;2.60;;;;;;;4.54;93.01;99518.13;216792;1260;140240;-68
2024/01/25 11:47:36;;;;;;;9.40;3.30;;;;;;;4.56;92.98;99512.56;218357;1257;140000;-69
2024/01/25 11:52:41;;;;;;;5.80;2.90;;;;;;;4.57;92.92;99513.17;217105;1261;139786;-69
2024/01/25 11:57:47;;;;;;;3.60;2.20;;;;;;;4.57;93.04;99518.98;218342;1261;141082;-69
2024/01/25 12:02:53;;;;;;;3.10;2.00;;;;;;;4.59;93.24;99527.18;218081;1261;141295;-68
2024/01/25 12:07:58;;;;;;;4.50;2.50;;;;;;;4.60;93.38;99531.50;218127;1259;139561;-70
2024/01/25 12:13:03;;;;;;;4.40;2.10;;;;;;;4.60;93.29;99542.48;219780;1257;139480;-68
2024/01/25 12:18:08;;;;;;;4.10;2.30;;;;;;;4.59;93.36;99541.39;219754;1259;139356;-69
2024/01/25 12:23:14;;;;;;;8.20;2.70;;;;;;;4.56;93.15;99545.45;218355;1258;140303;-69
2024/01/25 12:28:20;;;;;;;6.60;2.40;;;;;;;4.55;93.32;99551.98;217532;1258;141579;-68
2024/01/25 12:33:26;;;;;;;3.00;2.30;;;;;;;4.55;93.45;99555.61;216786;1257;140695;-68
2024/01/25 12:38:34;;;;;;;3.80;1.80;;;;;;;4.55;93.77;99560.40;217867;1258;141116;-69
2024/01/25 12:43:40;;;;;;;6.40;2.30;;;;;;;4.54;93.72;99570.02;217458;1257;139376;-68
2024/01/25 12:49:04;;;;;;;3.20;1.90;;;;;;;4.49;93.47;99577.44;217049;1257;140093;-69
2024/01/25 12:54:08;;;;;;;6.90;2.20;;;;;;;4.44;93.59;99577.70;218390;1258;140077;-68
2024/01/25 12:59:13;;;;;;;7.90;3.30;;;;;;;4.44;94.05;99580.51;216614;1258;139998;-69
2024/01/25 13:04:29;;;;;;;3.50;2.60;;;;;;;4.46;93.91;99581.77;217465;1259;139265;-69
2024/01/25 13:09:37;;;;;;;5.30;4.00;;;;;;;4.46;94.16;99587.02;216877;1257;141480;-68
2024/01/25 13:14:42;;;;;;;5.90;3.20;;;;;;;4.47;93.99;99582.38;216675;1257;139873;-69
2024/01/25 13:19:47;;;;;;;8.50;4.40;;;;;;;4.47;94.05;99583.02;216831;1260;139474;-68
2024/01/25 13:24:52;;;;;;;4.00;2.20;;;;;;;4.48;94.23;99582.80;218044;1257;139671;-69
2024/01/25 13:29:57;;;;;;;3.50;2.50;;;;;;;4.45;94.03;99592.56;216936;1257;141687;-69
2024/01/25 13:35:03;;;;;;;7.80;2.80;;;;;;;4.41;94.27;99603.39;216602;1258;139431;-68
2024/01/25 13:40:08;;;;;;;11.60;3.10;;;;;;;4.36;94.17;99617.73;217006;1257;140101;-68
2024/01/25 13:45:13;;;;;;;8.70;3.10;;;;;;;4.35;94.44;99623.23;217106;1258;140529;-69
2024/01/25 13:50:21;;;;;;;7.30;3.70;;;;;;;4.32;94.32;99634.05;217215;1257;140814;-69
2024/01/25 13:55:26;;;;;;;11.90;3.00;;;;;;;4.29;94.39;99639.14;219133;1258;141242;-68
2024/01/25 14:00:31;;;;;;;5.50;2.60;;;;;;;4.29;94.57;99647.02;216777;1260;139629;-68
2024/01/25 14:05:37;;;;;;;10.00;3.10;;;;;;;4.28;94.98;99653.11;216694;1260;139671;-69
2024/01/25 14:10:44;;;;;;;6.20;3.10;;;;;;;4.26;94.59;99662.17;216978;1257;140462;-69
2024/01/25 14:15:50;;;;;;;10.60;3.40;;;;;;;4.24;94.73;99671.94;219822;1257;141081;-69
2024/01/25 14:20:55;;;;;;;6.30;3.40;;;;;;;4.20;94.93;99679.83;219689;1257;139824;-68
2024/01/25 14:26:03;;;;;;;7.80;4.20;;;;;;;4.20;94.88;99691.20;219824;1258;139949;-68
2024/01/25 14:31:08;;;;;;;4.80;2.50;;;;;;;4.22;94.78;99697.95;217181;1260;139921;-68
2024/01/25 14:36:13;;;;;;;14.40;4.60;;;;;;;4.22;94.75;99697.27;216780;1260;139841;-69
2024/01/25 14:41:20;;;;;;;8.10;2.80;;;;;;;4.20;94.92;99703.86;218297;1260;139575;-68
2024/01/25 14:46:28;;;;;;;5.50;3.20;;;;;;;4.18;95.17;99710.66;218374;1261;140765;-68
2024/01/25 14:51:32;;;;;;;7.10;2.40;;;;;;;4.17;95.06;99718.37;217074;1259;139222;-70
2024/01/25 14:56:38;;;;;;;12.10;3.10;;;;;;;4.14;94.79;99728.54;217115;1257;140382;-68
2024/01/25 15:01:42;;;;;;;3.20;1.70;;;;;;;4.12;95.25;99735.45;216884;1257;140215;-68
2024/01/25 15:06:48;;;;;;;4.30;2.30;;;;;;;4.10;95.21;99739.95;216966;1261;139476;-68
2024/01/25 15:11:53;;;;;;;6.80;3.30;;;;;;;4.07;95.20;99753.33;217922;1256;140126;-68
2024/01/25 15:16:59;;;;;;;3.70;1.70;;;;;;;4.05;95.45;99757.64;217359;1262;140115;-68
2024/01/25 15:22:06;;;;;;;2.10;1.90;;;;;;;4.00;95.33;99765.16;217664;1257;140076;-67
2024/01/25 15:27:11;;;;;;;3.60;1.80;;;;;;;3.99;95.53;99778.24;217169;1257;140240;-68
2024/01/25 15:32:16;;;;;;;5.60;2.80;;;;;;;4.00;95.74;99787.88;217106;1257;141272;-67
2024/01/25 15:37:20;;;;;;;4.10;3.00;;;;;;;3.98;95.83;99788.02;218681;1257;140433;-69
2024/01/25 15:42:30;;;;;;;4.50;2.20;;;;;;;3.97;95.68;99795.25;217757;1261;141182;-69
2024/01/25 15:47:36;;;;;;;4.00;2.70;;;;;;;3.95;95.63;99808.80;216928;1256;139339;-68
2024/01/25 15:52:41;;;;;;;6.50;2.40;;;;;;;3.96;95.81;99822.64;217075;1261;139781;-68
2024/01/25 15:57:46;;;;;;;4.30;2.10;;;;;;;3.95;95.76;99830.90;219088;1257;141641;-69
2024/01/25 16:02:56;;;;;;;2.30;2.00;;;;;;;3.95;96.01;99840.52;218070;1260;152029;-69
2024/01/25 16:08:01;;;;;;;3.90;2.00;;;;;;;3.95;96.04;99853.55;217100;1260;140181;-68
2024/01/25 16:13:06;;;;;;;7.70;4.70;;;;;;;3.93;95.88;99864.98;219756;1260;139796;-68
2024/01/25 16:18:11;;;;;;;3.40;1.90;;;;;;;3.90;95.91;99874.69;219832;1260;140267;-69
2024/01/25 16:23:16;;;;;;;1.90;1.60;;;;;;;3.90;95.73;99879.54;219623;1257;141405;-69
2024/01/25 16:28:20;;;;;;;6.00;1.40;;;;;;;3.90;95.95;99891.07;219776;1257;140971;-70
2024/01/25 16:33:24;;;;;;;4.20;2.80;;;;;;;3.93;95.87;99901.98;217968;1257;140936;-68
2024/01/25 16:38:29;;;;;;;3.90;2.00;;;;;;;3.92;95.74;99898.68;217308;1258;139906;-69
2024/01/25 16:43:33;;;;;;;3.60;2.30;;;;;;;3.92;95.82;99895.35;216750;1257;142185;-69
2024/01/25 16:48:37;;;;;;;3.30;1.70;;;;;;;3.90;95.86;99907.75;217538;1258;139219;-69
2024/01/25 16:53:41;;;;;;;7.70;6.40;;;;;;;3.89;95.73;99919.37;216618;1261;232707;-69
2024/01/25 16:58:46;;;;;;;2.80;1.70;;;;;;;3.88;95.84;99921.63;216871;1260;139806;-69
2024/01/25 17:03:51;;;;;;;4.70;2.60;;;;;;;3.86;95.95;99933.77;216912;1262;139436;-69
2024/01/25 17:08:55;;;;;;;4.40;2.70;;;;;;;3.84;95.78;99941.38;216846;1258;140237;-69
2024/01/25 17:14:01;;;;;;;7.60;2.90;;;;;;;3.83;95.70;99954.64;216482;1257;139636;-69
2024/01/25 17:19:07;;;;;;;5.50;3.00;;;;;;;3.81;95.76;99962.16;217369;1257;141221;-68
2024/01/25 17:24:11;;;;;;;5.00;1.90;;;;;;;3.80;95.83;99970.48;217149;1260;140326;-68
2024/01/25 17:29:15;;;;;;;2.80;1.50;;;;;;;3.77;95.50;99988.67;216569;1259;139976;-69
2024/01/25 17:34:19;;;;;;;1.30;1.20;;;;;;;3.43;93.43;100003.48;216669;1261;140125;-68
2024/01/25 17:39:24;;;;;;;1.20;0.90;;;;;;;3.02;93.16;100010.36;218002;1257;141416;-67
2024/01/25 17:44:28;;;;;;;1.60;1.30;;;;;;;2.87;93.53;100020.20;217077;1257;141156;-67
2024/01/25 17:49:32;;;;;;;1.30;1.10;;;;;;;2.78;93.74;100019.48;217024;1257;141014;-67
2024/01/25 17:54:37;;;;;;;2.40;1.40;;;;;;;2.74;94.02;100033.84;217077;1259;139435;-67
2024/01/25 17:59:41;;;;;;;4.30;2.10;;;;;;;2.70;94.09;100049.11;217563;1259;140876;-67
2024/01/25 18:04:45;;;;;;;7.80;2.20;;;;;;;2.60;93.68;100055.14;217249;1260;211420;-68
2024/01/25 18:09:49;;;;;;;4.60;1.60;;;;;;;2.45;93.67;100057.54;218549;1257;140418;-68
2024/01/25 18:14:57;;;;;;;1.80;1.50;;;;;;;2.38;93.90;100057.33;218059;1260;139540;-66
2024/01/25 18:20:01;;;;;;;2.90;2.10;;;;;;;2.32;94.13;100059.92;217735;1257;139916;-70
2024/01/25 18:25:08;;;;;;;3.00;2.00;;;;;;;2.32;94.28;100070.25;217172;1257;139802;-69
2024/01/25 18:30:14;;;;;;;3.90;2.10;;;;;;;2.29;94.14;100080.15;216773;1260;140203;-70
2024/01/25 18:35:19;;;;;;;4.70;2.10;;;;;;;2.27;94.23;100085.20;219847;1257;140040;-70
2024/01/25 18:40:23;;;;;;;4.10;2.40;;;;;;;2.22;94.03;100093.80;216842;1257;139776;-69
2024/01/25 18:45:27;;;;;;;2.50;1.70;;;;;;;2.16;93.68;100095.77;217568;1257;140393;-69
2024/01/25 18:50:32;;;;;;;1.70;1.50;;;;;;;2.10;93.52;100099.57;217155;1262;139512;-67
2024/01/25 18:55:37;;;;;;;2.70;1.40;;;;;;;2.03;93.46;100100.74;217429;1258;139508;-67
2024/01/25 19:00:41;;;;;;;4.30;1.50;;;;;;;1.94;93.24;100103.66;217120;1258;140698;-67
2024/01/25 19:05:48;;;;;;;4.90;1.40;;;;;;;1.88;93.60;100103.80;216953;1257;139835;-67
2024/01/25 19:10:53;;;;;;;3.20;2.10;;;;;;;1.83;93.55;100106.59;218021;1262;139433;-67
2024/01/25 19:15:57;;;;;;;5.10;2.60;;;;;;;1.76;93.38;100119.86;217403;1261;140060;-67
2024/01/25 19:21:02;;;;;;;4.30;2.10;;;;;;;1.70;93.35;100135.77;218608;1260;141659;-67
2024/01/25 19:26:07;;;;;;;5.00;2.40;;;;;;;1.66;93.38;100140.92;219138;1260;140925;-68
2024/01/25 19:31:16;;;;;;;2.40;2.20;;;;;;;1.67;93.62;100142.70;217143;1261;140586;-68
2024/01/25 19:36:20;;;;;;;7.40;2.40;;;;;;;1.68;93.34;100151.17;216847;1262;140876;-68
2024/01/25 19:41:25;;;;;;;4.40;2.60;;;;;;;1.64;93.33;100155.97;216926;1262;139617;-68
2024/01/25 19:46:30;;;;;;;3.00;1.80;;;;;;;1.58;93.44;100154.70;216912;1262;139332;-67
2024/01/25 19:51:35;;;;;;;3.00;2.70;;;;;;;1.53;93.08;100154.98;219373;1258;141173;-67
2024/01/25 19:56:40;;;;;;;5.80;2.50;;;;;;;1.48;92.99;100168.98;218929;1262;139851;-67
2024/01/25 20:01:45;;;;;;;5.20;3.40;;;;;;;1.45;93.00;100177.69;218491;1258;140031;-68
2024/01/25 20:06:49;;;;;;;3.80;2.00;;;;;;;1.45;92.99;100179.10;219770;1257;140323;-68
2024/01/25 20:11:55;;;;;;;4.70;2.90;;;;;;;1.48;93.42;100192.59;216823;1262;140058;-67
2024/01/25 20:16:59;;;;;;;2.70;2.10;;;;;;;1.54;93.20;100194.77;216864;1262;141627;-67
2024/01/25 20:22:04;;;;;;;4.00;2.70;;;;;;;1.56;93.26;100196.97;218632;1261;142508;-67
2024/01/25 20:27:12;;;;;;;6.60;3.80;;;;;;;1.57;93.23;100203.40;217014;1262;140644;-67
2024/01/25 20:32:17;;;;;;;5.50;3.10;;;;;;;1.56;92.98;100204.72;218904;1257;140688;-66
2024/01/25 20:37:22;;;;;;;4.80;3.30;;;;;;;1.57;93.25;100202.33;218009;1258;139860;-68
2024/01/25 20:42:27;;;;;;;4.70;2.60;;;;;;;1.61;93.34;100202.09;217603;1257;139716;-67
2024/01/25 20:47:32;;;;;;;9.80;4.30;;;;;;;1.61;93.44;100208.34;218051;1262;141752;-67
2024/01/25 20:52:38;;;;;;;5.90;3.30;;;;;;;1.64;93.59;100216.13;218073;1261;139892;-66
2024/01/25 20:57:43;;;;;;;8.90;4.60;;;;;;;1.67;93.32;100221.90;217342;1262;139946;-67
2024/01/25 21:02:48;;;;;;;9.10;4.30;;;;;;;1.71;93.57;100223.12;216793;1263;140749;-66
2024/01/25 21:07:53;;;;;;;9.20;4.50;;;;;;;1.70;93.51;100223.88;217667;1257;140200;-66
2024/01/25 21:12:59;;;;;;;8.30;3.60;;;;;;;1.67;93.42;100223.64;216766;1257;139729;-68
2024/01/25 21:18:04;;;;;;;4.90;3.50;;;;;;;1.65;93.24;100224.27;216993;1260;139801;-68
2024/01/25 21:23:08;;;;;;;5.90;3.40;;;;;;;1.62;93.24;100234.65;218123;1261;140874;-68
2024/01/25 21:28:13;;;;;;;3.20;2.30;;;;;;;1.63;93.20;100232.80;217980;1257;139940;-67
2024/01/25 21:33:17;;;;;;;3.80;2.30;;;;;;;1.63;93.17;100240.02;216953;1260;246975;-67
2024/01/25 21:38:22;;;;;;;5.60;2.50;;;;;;;1.63;92.80;100241.58;218151;1257;139482;-69
2024/01/25 21:43:26;;;;;;;3.20;1.90;;;;;;;1.59;92.54;100244.96;216859;1261;140103;-68
2024/01/25 21:48:31;;;;;;;3.10;2.90;;;;;;;1.55;92.12;100249.45;216760;1258;139770;-69
2024/01/25 21:53:36;;;;;;;3.10;2.80;;;;;;;1.53;92.01;100253.01;219788;1260;139930;-67
2024/01/25 21:58:40;;;;;;;3.80;2.20;;;;;;;1.52;92.08;100259.63;219718;1257;139672;-65
2024/01/25 22:03:44;;;;;;;2.70;2.50;;;;;;;1.54;91.58;100268.11;219763;1257;139887;-69
2024/01/25 22:08:48;;;;;;;3.50;3.00;;;;;;;1.53;91.48;100267.92;219691;1257;141488;-71
2024/01/25 22:13:53;;;;;;;4.20;3.10;;;;;;;1.54;91.27;100270.10;216792;1257;140771;-71
2024/01/25 22:19:01;;;;;;;3.40;2.80;;;;;;;1.54;90.79;100271.95;216693;1260;140711;-70
2024/01/25 22:24:06;;;;;;;5.20;3.50;;;;;;;1.55;90.87;100273.85;218422;1257;140777;-70
2024/01/25 22:29:10;;;;;;;3.10;2.00;;;;;;;1.53;91.23;100280.05;217666;1257;140467;-69
2024/01/25 22:34:14;;;;;;;3.60;1.80;;;;;;;1.51;90.90;100284.74;217930;1257;140011;-69
2024/01/25 22:39:18;;;;;;;2.40;2.20;;;;;;;1.50;90.77;100287.57;218020;1257;139843;-70
2024/01/25 22:44:23;;;;;;;4.90;1.80;;;;;;;1.50;90.72;100290.10;217164;1257;141149;-68
2024/01/25 22:49:27;;;;;;;4.90;2.40;;;;;;;1.50;90.81;100299.59;217955;1257;140466;-72
2024/01/25 22:54:31;;;;;;;4.70;2.00;;;;;;;1.50;90.96;100309.64;216630;1260;139458;-70
2024/01/25 22:59:37;;;;;;;2.30;2.10;;;;;;;1.51;90.86;100318.24;217268;1257;139786;-74
2024/01/25 23:04:42;;;;;;;2.50;1.90;;;;;;;1.51;90.64;100332.27;217813;1262;140004;-71
2024/01/25 23:09:47;;;;;;;6.00;2.50;;;;;;;1.49;90.33;100341.73;217069;1263;140690;-71
2024/01/25 23:14:52;;;;;;;2.40;1.70;;;;;;;1.49;90.61;100342.44;217285;1261;140793;-68
2024/01/25 23:19:57;;;;;;;3.40;1.70;;;;;;;1.52;90.68;100344.09;217863;1257;139864;-68
2024/01/25 23:25:02;;;;;;;4.50;2.10;;;;;;;1.52;90.47;100347.73;217754;1260;140712;-67
2024/01/25 23:30:09;;;;;;;2.50;1.80;;;;;;;1.51;90.45;100347.48;217327;1257;139527;-66
2024/01/25 23:35:14;;;;;;;2.60;1.80;;;;;;;1.53;90.25;100350.23;218079;1257;140818;-68